Time;durP1;ratioP1;P1;durP2;ratioP2;P2;SDS_P1;SDS_P2;PMS_P1;PMS_P2;Temp;Humidity;BMP_temperature;BMP_pressure;BME280_temperature;BME280_humidity;BME280_pressure;Samples;Min_cycle;Max_cycle;Signal;HPM_P1;HPM_P2
2024/01/24 00:00:47;;;;;;;;;1.00;0.00;;;;;10.97;100.00;101047.66;4964918;28;10378;-66
2024/01/24 00:03:14;;;;;;;;;3.00;0.75;;;;;10.98;100.00;101042.09;4961199;28;9762;-66
2024/01/24 00:05:41;;;;;;;;;1.00;0.25;;;;;11.03;100.00;101034.25;4938994;28;9614;-67
2024/01/24 00:08:07;;;;;;;;;0.75;0.75;;;;;11.03;100.00;101058.50;4935278;28;9633;-67
2024/01/24 00:10:34;;;;;;;;;1.00;1.00;;;;;11.06;100.00;101059.94;4939459;28;9639;-67
2024/01/24 00:13:01;;;;;;;;;2.00;0.00;;;;;11.11;100.00;101061.06;4965936;28;9762;-67
2024/01/24 00:15:28;;;;;;;;;0.00;0.00;;;;;11.16;100.00;101078.50;4964433;28;9670;-67
2024/01/24 00:17:54;;;;;;;;;0.50;0.50;;;;;11.17;100.00;101078.31;4959571;28;9595;-67
2024/01/24 00:20:21;;;;;;;;;0.00;0.00;;;;;11.11;100.00;101061.06;4965211;28;9675;-67
2024/01/24 00:22:47;;;;;;;;;2.00;2.00;;;;;11.09;100.00;101070.34;4954909;28;9464;-67
2024/01/24 00:25:14;;;;;;;;;1.00;1.00;;;;;11.12;100.00;101060.03;4947248;28;9623;-67
2024/01/24 00:27:41;;;;;;;;;1.00;0.75;;;;;11.10;100.00;101080.94;4949161;28;9641;-67
2024/01/24 00:30:09;;;;;;;;;1.00;0.00;;;;;11.03;100.00;101085.44;4931592;29;10248;-67
2024/01/24 00:32:35;;;;;;;;;0.25;0.25;;;;;11.03;100.00;101085.44;4950344;28;9557;-66
2024/01/24 00:35:03;;;;;;;;;0.00;0.00;;;;;11.04;100.00;101102.44;4945938;28;9558;-67
2024/01/24 00:37:30;;;;;;;;;1.00;0.00;;;;;11.04;100.00;101087.09;4943163;28;9841;-66
2024/01/24 00:39:57;;;;;;;;;0.00;0.00;;;;;11.02;100.00;101077.53;4934333;28;9724;-67
2024/01/24 00:42:24;;;;;;;;;0.75;0.75;;;;;10.99;100.00;101059.91;4961366;28;10238;-66
2024/01/24 00:44:51;;;;;;;;;1.00;1.00;;;;;10.96;100.00;101065.66;4944154;28;9723;-67
2024/01/24 00:47:19;;;;;;;;;0.50;0.00;;;;;10.96;100.00;101064.84;4943696;28;9803;-67
2024/01/24 00:49:46;;;;;;;;;0.00;0.00;;;;;10.97;100.00;101044.94;4935864;29;9555;-67
2024/01/24 00:52:12;;;;;;;;;0.50;0.50;;;;;11.00;100.00;101033.78;4942447;28;9725;-66
2024/01/24 00:54:39;;;;;;;;;1.75;1.00;;;;;10.96;100.00;101046.81;4956384;28;9777;-67
2024/01/24 00:57:06;;;;;;;;;0.00;0.00;;;;;10.98;100.00;101057.38;4971464;28;9602;-66
2024/01/24 00:59:32;;;;;;;;;4.25;1.00;;;;;10.95;100.00;101039.75;4948282;28;10208;-67
2024/01/24 01:01:59;;;;;;;;;1.00;1.00;;;;;10.95;100.00;101012.84;4951404;28;9515;-67
2024/01/24 01:04:25;;;;;;;;;2.00;1.75;;;;;11.00;100.00;101028.41;4940738;28;9727;-67
2024/01/24 01:06:52;;;;;;;;;0.00;0.00;;;;;11.00;100.00;101053.47;4948935;29;9644;-67
2024/01/24 01:09:19;;;;;;;;;1.00;1.00;;;;;11.02;100.00;101031.72;4948116;28;9622;-67
2024/01/24 01:11:45;;;;;;;;;0.00;0.00;;;;;10.96;100.00;101027.97;4968186;28;9546;-66
2024/01/24 01:14:12;;;;;;;;;0.00;0.00;;;;;10.98;100.00;101054.69;4962852;28;9539;-67
2024/01/24 01:16:38;;;;;;;;;0.00;0.00;;;;;10.97;100.00;101039.56;4949280;28;9599;-67
2024/01/24 01:19:05;;;;;;;;;1.00;1.00;;;;;10.92;100.00;101039.31;4938737;28;9476;-67
2024/01/24 01:21:31;;;;;;;;;0.50;0.50;;;;;10.95;100.00;101034.38;4952970;28;10328;-66
2024/01/24 01:23:58;;;;;;;;;0.75;0.75;;;;;10.95;100.00;101037.06;4931512;28;11877;-66
2024/01/24 01:26:25;;;;;;;;;0.00;0.00;;;;;10.97;100.00;101015.31;4955691;28;9494;-67
2024/01/24 01:28:51;;;;;;;;;1.50;0.75;;;;;11.04;100.00;101043.16;4956316;28;9473;-67
2024/01/24 01:31:18;;;;;;;;;0.00;0.00;;;;;11.05;100.00;101031.34;4929324;29;9623;-67
2024/01/24 01:33:47;;;;;;;;;3.00;1.00;;;;;11.07;100.00;101010.47;4963231;28;9518;-67
2024/01/24 01:36:14;;;;;;;;;0.00;0.00;;;;;10.99;100.00;101021.38;4957950;28;9625;-66
2024/01/24 01:38:49;;;;;;;;;3.00;0.00;;;;;10.96;100.00;101003.72;4941953;29;9556;-66
2024/01/24 01:41:16;;;;;;;;;0.00;0.00;;;;;11.01;100.00;101022.81;4918190;29;9467;-66
2024/01/24 01:43:44;;;;;;;;;1.50;1.50;;;;;11.01;100.00;101012.03;4902237;29;9694;-66
2024/01/24 01:46:18;;;;;;;;;0.00;0.00;;;;;10.99;100.00;101002.50;4947997;28;9671;-67
2024/01/24 01:48:45;;;;;;;;;2.25;0.75;;;;;10.93;100.00;101000.56;4931477;28;9488;-66
2024/01/24 01:51:12;;;;;;;;;1.50;0.75;;;;;10.94;100.00;101010.31;4940177;28;9466;-66
2024/01/24 01:53:39;;;;;;;;;1.50;0.50;;;;;11.00;100.00;101012.25;4936042;28;10427;-67
2024/01/24 01:56:12;;;;;;;;;2.00;1.00;;;;;11.08;100.00;101018.34;4938480;28;9539;-67
2024/01/24 01:58:40;;;;;;;;;1.00;1.00;;;;;11.09;100.00;100986.84;4947104;29;9455;-67
2024/01/24 02:01:07;;;;;;;;;0.75;0.75;;;;;11.08;100.00;101028.28;4934499;29;9618;-67
2024/01/24 02:03:40;;;;;;;;;0.25;0.25;;;;;11.03;100.00;101028.88;4902582;29;9599;-67
2024/01/24 02:06:07;;;;;;;;;1.00;1.00;;;;;11.09;100.00;101055.00;4938441;28;9626;-67
2024/01/24 02:08:35;;;;;;;;;3.00;1.00;;;;;11.08;100.00;101068.69;4950968;28;9537;-66
2024/01/24 02:11:03;;;;;;;;;0.00;0.00;;;;;11.09;100.00;101048.81;4934868;28;9712;-66
2024/01/24 02:13:31;;;;;;;;;1.75;0.50;;;;;11.15;100.00;101075.00;4952143;28;9547;-66
2024/01/24 02:15:59;;;;;;;;;1.00;0.00;;;;;11.12;100.00;101069.97;4930665;28;9596;-67
2024/01/24 02:18:25;;;;;;;;;1.00;1.00;;;;;11.13;100.00;101067.06;4950745;28;9677;-66
2024/01/24 02:20:52;;;;;;;;;2.25;2.00;;;;;11.11;100.00;101055.69;4936639;28;9630;-67
2024/01/24 02:23:22;;;;;;;;;1.25;1.00;;;;;11.11;100.00;101036.00;4935263;28;9705;-67
2024/01/24 02:25:50;;;;;;;;;2.50;0.00;;;;;11.08;100.00;101060.59;4945461;28;9705;-66
2024/01/24 02:28:16;;;;;;;;;0.00;0.00;;;;;11.05;100.00;101053.72;4947657;28;9708;-67
2024/01/24 02:30:43;;;;;;;;;0.00;0.00;;;;;11.06;100.00;101066.19;4953511;28;9609;-67
2024/01/24 02:33:10;;;;;;;;;0.00;0.00;;;;;11.05;100.00;101063.69;4953075;28;9622;-67
2024/01/24 02:35:37;;;;;;;;;1.75;0.75;;;;;11.07;100.00;101070.56;4950911;28;9476;-67
2024/01/24 02:38:04;;;;;;;;;2.25;1.00;;;;;11.04;100.00;101073.63;4951376;28;9757;-67
2024/01/24 02:40:31;;;;;;;;;1.00;0.50;;;;;11.07;100.00;101067.03;4953064;28;9693;-67
2024/01/24 02:42:57;;;;;;;;;2.75;2.00;;;;;11.01;100.00;101103.63;4935618;28;9611;-66
2024/01/24 02:45:24;;;;;;;;;5.25;2.25;;;;;11.01;100.00;101075.88;4943874;28;9750;-66
2024/01/24 02:47:50;;;;;;;;;5.00;2.25;;;;;11.03;100.00;101079.22;4931912;29;9633;-67
2024/01/24 02:50:17;;;;;;;;;3.25;3.00;;;;;11.05;100.00;101086.06;4913577;29;9647;-67
2024/01/24 02:52:44;;;;;;;;;1.75;1.50;;;;;10.96;100.00;101099.84;4913620;29;9840;-67
2024/01/24 02:55:16;;;;;;;;;0.50;0.50;;;;;10.89;100.00;101119.44;4925995;29;10345;-66
2024/01/24 02:57:44;;;;;;;;;1.00;1.00;;;;;10.94;100.00;101140.47;4924108;29;9640;-66
2024/01/24 03:00:12;;;;;;;;;5.00;2.00;;;;;10.88;100.00;101109.72;4930670;29;9596;-67
2024/01/24 03:02:39;;;;;;;;;2.75;2.75;;;;;10.80;100.00;101106.28;4922966;29;9740;-66
2024/01/24 03:05:08;;;;;;;;;5.00;2.00;;;;;10.83;100.00;101093.28;4929872;29;9857;-66
2024/01/24 03:07:36;;;;;;;;;3.25;2.25;;;;;10.80;100.00;101107.13;4926840;28;9714;-66
2024/01/24 03:10:04;;;;;;;;;3.00;1.00;;;;;10.73;100.00;101089.22;4931760;29;9878;-66
2024/01/24 03:12:31;;;;;;;;;2.75;2.00;;;;;10.73;100.00;101075.75;4941340;28;9802;-66
2024/01/24 03:14:57;;;;;;;;;4.75;1.25;;;;;10.69;100.00;101088.75;4929039;29;9882;-66
2024/01/24 03:17:24;;;;;;;;;3.00;3.00;;;;;10.70;100.00;101098.53;4931266;29;9987;-67
2024/01/24 03:19:50;;;;;;;;;2.50;2.00;;;;;10.66;100.00;101099.94;4946532;28;9960;-66
2024/01/24 03:22:18;;;;;;;;;2.50;2.00;;;;;10.63;100.00;101084.97;4932194;29;9865;-66
2024/01/24 03:24:44;;;;;;;;;3.00;3.00;;;;;10.68;100.00;101088.97;4926068;29;10498;-67
2024/01/24 03:27:11;;;;;;;;;3.75;2.00;;;;;10.71;100.00;101089.44;4924870;29;9873;-66
2024/01/24 03:29:40;;;;;;;;;1.75;1.25;;;;;10.70;100.00;101100.41;4928856;29;10630;-66
2024/01/24 03:32:07;;;;;;;;;5.75;1.25;;;;;10.71;100.00;101088.59;4932511;29;9959;-66
2024/01/24 03:34:33;;;;;;;;;2.00;1.50;;;;;10.69;100.00;101122.94;4931343;29;10052;-66
2024/01/24 03:37:00;;;;;;;;;2.00;1.75;;;;;10.65;100.00;101087.47;4927799;29;9875;-66
2024/01/24 03:39:28;;;;;;;;;6.50;2.75;;;;;10.58;100.00;101098.19;4922936;29;9793;-66
2024/01/24 03:41:54;;;;;;;;;4.00;3.00;;;;;10.56;100.00;101083.22;4932949;29;9978;-66
2024/01/24 03:44:21;;;;;;;;;8.25;2.00;;;;;10.56;100.00;101056.31;4940213;29;10153;-66
2024/01/24 03:46:47;;;;;;;;;2.50;1.00;;;;;10.58;99.22;101071.25;4950647;29;10069;-66
2024/01/24 03:49:14;;;;;;;;;1.00;1.00;;;;;10.57;99.23;101066.91;4948353;29;10811;-66
2024/01/24 03:51:41;;;;;;;;;1.75;1.75;;;;;10.56;98.56;101072.47;4953128;28;9772;-66
2024/01/24 03:54:08;;;;;;;;;5.00;3.50;;;;;10.53;98.07;101051.28;4938838;29;10732;-67
2024/01/24 03:56:34;;;;;;;;;2.75;2.75;;;;;10.52;97.55;101050.47;4948463;29;10077;-66
2024/01/24 03:59:01;;;;;;;;;4.50;1.50;;;;;10.55;97.67;101062.72;4949685;29;9840;-66
2024/01/24 04:01:27;;;;;;;;;4.50;3.00;;;;;10.58;95.97;101081.19;4950913;28;9915;-67
2024/01/24 04:03:54;;;;;;;;;2.00;2.00;;;;;10.59;95.41;101055.94;4932296;28;10943;-67
2024/01/24 04:06:21;;;;;;;;;3.75;1.75;;;;;10.54;95.58;101058.38;4933251;29;9852;-67
2024/01/24 04:08:48;;;;;;;;;3.50;2.25;;;;;10.50;95.19;101070.53;4948100;28;10029;-66
2024/01/24 04:11:14;;;;;;;;;2.00;2.00;;;;;10.46;94.56;101071.94;4949881;28;10056;-67
2024/01/24 04:13:42;;;;;;;;;1.00;1.00;;;;;10.45;93.07;101103.41;4948816;28;9877;-66
2024/01/24 04:16:09;;;;;;;;;3.25;2.00;;;;;10.47;92.09;101085.19;4950626;28;10011;-67
2024/01/24 04:18:37;;;;;;;;;7.75;4.00;;;;;10.50;91.99;101081.31;4931714;29;10587;-67
2024/01/24 04:21:04;;;;;;;;;3.75;3.00;;;;;10.57;91.45;101109.97;4930751;28;9889;-67
2024/01/24 04:23:30;;;;;;;;;4.00;2.00;;;;;10.54;91.28;101094.19;4951158;29;9941;-67
2024/01/24 04:25:57;;;;;;;;;1.75;1.75;;;;;10.48;91.87;101112.94;4946369;28;9862;-66
2024/01/24 04:28:23;;;;;;;;;6.00;2.50;;;;;10.48;91.22;101107.56;4951220;29;10133;-66
2024/01/24 04:30:50;;;;;;;;;5.75;5.00;;;;;10.42;90.26;101105.63;4949721;28;10064;-66
2024/01/24 04:33:16;;;;;;;;;5.50;4.75;;;;;10.45;89.72;101124.06;4939042;29;10181;-67
2024/01/24 04:35:43;;;;;;;;;8.25;3.75;;;;;10.45;89.17;101126.75;4918728;29;9948;-67
2024/01/24 04:38:10;;;;;;;;;9.50;5.75;;;;;10.40;88.81;101141.59;4923530;29;10123;-67
2024/01/24 04:40:36;;;;;;;;;3.50;2.00;;;;;10.34;88.51;101147.75;4943250;28;10313;-66
2024/01/24 04:43:03;;;;;;;;;3.50;3.25;;;;;10.37;88.51;101151.91;4940875;28;10152;-66
2024/01/24 04:45:30;;;;;;;;;6.25;3.75;;;;;10.34;88.39;101165.75;4932886;29;10053;-65
2024/01/24 04:47:57;;;;;;;;;6.75;3.00;;;;;10.30;87.92;101177.91;4932830;29;10117;-66
2024/01/24 04:50:24;;;;;;;;;7.00;6.25;;;;;10.33;88.56;101151.47;4934142;29;10058;-66
2024/01/24 04:52:51;;;;;;;;;4.50;3.75;;;;;10.31;87.39;101160.72;4931190;29;10194;-65
2024/01/24 04:55:17;;;;;;;;;2.50;2.50;;;;;10.29;88.39;101171.69;4934430;29;10308;-66
2024/01/24 04:57:44;;;;;;;;;5.50;3.00;;;;;10.25;87.13;101173.06;4934042;29;10171;-66
2024/01/24 05:00:11;;;;;;;;;3.75;3.75;;;;;10.25;86.79;101181.16;4933699;29;10057;-66
2024/01/24 05:02:39;;;;;;;;;10.50;5.00;;;;;10.20;87.17;101156.59;4927072;29;10199;-65
2024/01/24 05:05:06;;;;;;;;;7.75;6.25;;;;;10.16;85.50;101176.81;4934146;29;10346;-65
2024/01/24 05:07:34;;;;;;;;;6.00;5.75;;;;;10.11;86.94;101165.78;4931059;29;10162;-65
2024/01/24 05:10:03;;;;;;;;;7.50;3.50;;;;;10.13;86.12;101171.81;4911661;28;10220;-65
2024/01/24 05:12:31;;;;;;;;;10.00;7.25;;;;;10.06;86.24;101200.47;4931142;29;10121;-67
2024/01/24 05:14:57;;;;;;;;;5.50;5.00;;;;;10.13;85.88;101210.31;4933009;28;10262;-66
2024/01/24 05:17:24;;;;;;;;;7.25;2.50;;;;;10.11;85.90;101201.56;4948243;28;10213;-67
2024/01/24 05:19:50;;;;;;;;;7.75;3.75;;;;;10.05;85.70;101205.00;4932716;29;10846;-67
2024/01/24 05:22:17;;;;;;;;;12.25;11.25;;;;;10.04;85.49;101202.47;4937444;29;10127;-67
2024/01/24 05:24:45;;;;;;;;;12.00;5.50;;;;;10.00;85.51;101217.31;4931348;29;10230;-67
2024/01/24 05:27:12;;;;;;;;;4.00;1.75;;;;;9.98;85.19;101222.88;4931502;29;10227;-67
2024/01/24 05:29:39;;;;;;;;;8.50;5.75;;;;;9.96;85.44;101229.44;4932325;29;10040;-67
2024/01/24 05:32:06;;;;;;;;;10.75;5.25;;;;;9.89;85.40;101219.44;4933895;29;10130;-67
2024/01/24 05:34:33;;;;;;;;;5.25;4.00;;;;;9.90;85.17;101272.19;4934495;29;10274;-67
2024/01/24 05:37:00;;;;;;;;;7.50;6.00;;;;;9.89;85.41;101259.78;4931184;29;10040;-67
2024/01/24 05:39:26;;;;;;;;;15.00;10.25;;;;;9.97;85.00;101266.09;4927929;29;10231;-67
2024/01/24 05:41:53;;;;;;;;;9.25;6.25;;;;;9.91;85.37;101267.63;4933463;29;11000;-67
2024/01/24 05:44:20;;;;;;;;;9.00;8.00;;;;;9.88;84.51;101266.16;4936944;28;10241;-67
2024/01/24 05:46:46;;;;;;;;;6.25;6.25;;;;;9.83;85.24;101276.59;4949991;28;10322;-66
2024/01/24 05:49:13;;;;;;;;;6.00;4.75;;;;;9.82;84.51;101277.63;4943839;28;10319;-66
2024/01/24 05:51:42;;;;;;;;;7.50;5.00;;;;;9.86;84.22;101268.19;4955233;28;10259;-66
2024/01/24 05:54:09;;;;;;;;;12.25;8.25;;;;;9.95;83.80;101298.53;4959353;28;10294;-68
2024/01/24 05:56:35;;;;;;;;;6.50;5.00;;;;;9.92;84.35;101306.97;4952782;28;10704;-67
2024/01/24 05:59:02;;;;;;;;;11.25;7.00;;;;;9.89;84.22;101308.16;4947723;28;10176;-67
2024/01/24 06:01:28;;;;;;;;;3.50;3.00;;;;;9.84;83.46;101312.38;4942058;28;10360;-67
2024/01/24 06:03:55;;;;;;;;;8.75;7.00;;;;;9.90;83.90;101319.75;4952534;28;10350;-67
2024/01/24 06:06:22;;;;;;;;;8.50;7.50;;;;;9.91;83.52;101321.44;4970810;28;10852;-67
2024/01/24 06:08:49;;;;;;;;;11.00;6.25;;;;;9.85;83.36;101320.28;4930413;28;10170;-67
2024/01/24 06:11:17;;;;;;;;;9.50;8.75;;;;;9.76;83.79;101317.81;4959078;28;10081;-67
2024/01/24 06:13:44;;;;;;;;;8.25;5.50;;;;;9.80;82.72;101336.13;4958600;28;10454;-67
2024/01/24 06:16:10;;;;;;;;;7.75;6.00;;;;;9.90;83.42;101360.09;4968207;28;10161;-68
2024/01/24 06:18:37;;;;;;;;;15.00;8.50;;;;;9.78;83.22;101348.06;4953924;28;10360;-67
2024/01/24 06:21:04;;;;;;;;;9.25;5.50;;;;;9.77;83.06;101347.22;4952533;28;10192;-67
2024/01/24 06:23:30;;;;;;;;;14.50;6.75;;;;;9.78;82.73;101343.53;4959423;28;10187;-67
2024/01/24 06:25:57;;;;;;;;;10.00;8.50;;;;;9.77;82.58;101346.41;4943134;28;10431;-67
2024/01/24 06:28:24;;;;;;;;;11.25;6.50;;;;;9.77;82.53;101359.84;4909293;29;10403;-67
2024/01/24 06:30:51;;;;;;;;;10.75;7.50;;;;;9.75;82.34;101353.78;4928534;28;10209;-67
2024/01/24 06:33:18;;;;;;;;;12.00;5.75;;;;;9.72;81.21;101363.03;4940158;28;10448;-67
2024/01/24 06:35:44;;;;;;;;;8.25;8.25;;;;;9.71;81.22;101364.06;4961821;28;10357;-67
2024/01/24 06:38:11;;;;;;;;;9.75;7.50;;;;;9.75;81.21;101391.44;4948519;28;10332;-68
2024/01/24 06:40:37;;;;;;;;;12.50;7.75;;;;;9.75;80.51;101381.50;4949055;28;10273;-68
2024/01/24 06:43:04;;;;;;;;;13.00;7.00;;;;;9.76;80.26;101382.34;4936195;28;10335;-67
2024/01/24 06:45:30;;;;;;;;;7.00;5.50;;;;;9.73;79.71;101399.69;4962552;28;10256;-67
2024/01/24 06:47:58;;;;;;;;;13.50;8.00;;;;;9.72;80.30;101373.78;4930963;28;10318;-67
2024/01/24 06:50:24;;;;;;;;;8.00;7.50;;;;;9.66;80.17;101394.16;4950142;28;10431;-68
2024/01/24 06:52:51;;;;;;;;;9.75;6.50;;;;;9.65;79.85;101405.94;4948843;28;10492;-67
2024/01/24 06:55:18;;;;;;;;;8.00;6.25;;;;;9.68;79.68;101402.03;4951687;28;10366;-67
2024/01/24 06:57:44;;;;;;;;;17.50;7.75;;;;;9.71;79.40;101414.28;4932729;28;10369;-67
2024/01/24 07:00:12;;;;;;;;;13.75;8.00;;;;;9.65;80.36;101408.63;4928538;28;10399;-67
2024/01/24 07:02:38;;;;;;;;;10.75;6.75;;;;;9.58;79.01;101421.06;4958402;28;10409;-67
2024/01/24 07:05:06;;;;;;;;;6.50;5.00;;;;;9.59;79.27;101400.41;4945962;28;10423;-67
2024/01/24 07:07:32;;;;;;;;;11.00;8.25;;;;;9.61;78.75;101409.97;4948517;28;10178;-67
2024/01/24 07:09:59;;;;;;;;;9.50;6.75;;;;;9.59;78.58;101405.78;4934675;28;11142;-67
2024/01/24 07:12:26;;;;;;;;;10.75;8.50;;;;;9.62;78.65;101410.81;4942516;28;10416;-67
2024/01/24 07:14:52;;;;;;;;;11.00;6.50;;;;;9.64;78.74;101441.03;4950635;28;10596;-67
2024/01/24 07:17:19;;;;;;;;;16.75;10.25;;;;;9.57;79.22;101427.47;4947580;28;10355;-67
2024/01/24 07:19:46;;;;;;;;;13.75;10.25;;;;;9.56;78.61;101424.94;4955977;28;10418;-67
2024/01/24 07:22:15;;;;;;;;;16.50;8.00;;;;;9.54;78.90;101438.56;4952065;28;11189;-67
2024/01/24 07:24:44;;;;;;;;;8.75;8.00;;;;;9.60;79.32;101428.94;4957799;28;11173;-67
2024/01/24 07:27:11;;;;;;;;;10.75;6.75;;;;;9.52;79.36;101434.34;4928315;28;10337;-67
2024/01/24 07:29:38;;;;;;;;;10.00;7.50;;;;;9.54;79.02;101435.03;4944495;28;10556;-67
2024/01/24 07:32:05;;;;;;;;;13.25;11.00;;;;;9.54;78.87;101438.56;4961551;28;10699;-68
2024/01/24 07:34:32;;;;;;;;;11.75;7.25;;;;;9.53;79.03;101442.25;4954151;28;11296;-66
2024/01/24 07:36:59;;;;;;;;;6.50;3.00;;;;;9.51;78.53;101432.69;4956028;28;10427;-68
2024/01/24 07:39:28;;;;;;;;;9.75;8.50;;;;;9.57;78.67;101435.53;4963718;28;10412;-68
2024/01/24 07:41:55;;;;;;;;;7.75;5.75;;;;;9.52;78.00;101471.97;4950473;28;11242;-68
2024/01/24 07:44:23;;;;;;;;;8.00;5.50;;;;;9.51;78.99;101479.19;4945973;29;10421;-68
2024/01/24 07:46:49;;;;;;;;;16.25;9.50;;;;;9.51;78.72;101492.63;4953921;29;10521;-68
2024/01/24 07:49:17;;;;;;;;;7.75;6.25;;;;;9.53;78.42;101479.03;4946857;29;12516;-68
2024/01/24 07:51:46;;;;;;;;;11.50;8.75;;;;;9.51;78.13;101503.38;4935257;29;11279;-68
2024/01/24 07:54:19;;;;;;;;;12.50;8.25;;;;;9.46;78.19;101491.47;4934781;28;10361;-65
2024/01/24 07:56:46;;;;;;;;;14.00;6.50;;;;;9.58;78.96;101480.19;4948180;29;10429;-66
2024/01/24 07:59:16;;;;;;;;;15.75;10.75;;;;;9.51;77.46;101492.63;4940112;29;10356;-66
2024/01/24 08:01:45;;;;;;;;;17.50;8.00;;;;;9.50;77.98;101487.44;4932734;29;10348;-66
2024/01/24 08:04:13;;;;;;;;;11.25;7.25;;;;;9.54;77.92;101505.75;4932959;29;10503;-66
2024/01/24 08:06:45;;;;;;;;;12.50;10.50;;;;;9.53;77.84;101500.53;4926761;29;10328;-66
2024/01/24 08:09:13;;;;;;;;;5.75;5.00;;;;;9.54;77.78;101518.34;4951851;29;11244;-66
2024/01/24 08:11:40;;;;;;;;;16.00;9.00;;;;;9.51;77.96;101532.13;4951672;29;10347;-66
2024/01/24 08:14:08;;;;;;;;;14.75;10.00;;;;;9.52;77.15;101549.91;4951126;28;10666;-66
2024/01/24 08:16:35;;;;;;;;;8.75;6.50;;;;;9.59;77.14;101532.09;4944981;29;11306;-66
2024/01/24 08:19:02;;;;;;;;;8.50;6.25;;;;;9.54;77.12;101535.31;4918949;29;10575;-66
2024/01/24 08:21:29;;;;;;;;;10.25;8.00;;;;;9.50;77.35;101538.50;4919250;29;10477;-66
2024/01/24 08:23:56;;;;;;;;;14.00;11.00;;;;;9.48;77.81;101527.06;4918882;29;10633;-66
2024/01/24 08:26:22;;;;;;;;;16.25;9.25;;;;;9.48;76.85;101535.13;4941912;28;10816;-66
2024/01/24 08:28:49;;;;;;;;;6.75;6.25;;;;;9.51;77.25;101551.75;4935830;29;10500;-66
2024/01/24 08:31:15;;;;;;;;;11.50;7.75;;;;;9.48;76.52;101552.13;4935989;29;10479;-66
2024/01/24 08:33:42;;;;;;;;;7.75;7.25;;;;;9.53;76.02;101549.75;4935820;29;10658;-66
2024/01/24 08:36:09;;;;;;;;;11.75;7.50;;;;;9.59;76.72;101558.97;4924985;28;10424;-67
2024/01/24 08:38:35;;;;;;;;;11.00;8.25;;;;;9.63;76.24;101571.06;4953435;28;10377;-66
2024/01/24 08:41:04;;;;;;;;;9.50;7.00;;;;;9.62;76.47;101580.16;4954511;28;11385;-67
2024/01/24 08:43:30;;;;;;;;;15.25;8.50;;;;;9.56;76.06;101595.13;4937361;28;10400;-67
2024/01/24 08:45:57;;;;;;;;;11.00;6.75;;;;;9.57;76.27;101569.91;4935508;28;10494;-68
2024/01/24 08:48:24;;;;;;;;;8.00;7.00;;;;;9.63;76.36;101571.06;4935218;28;11112;-66
2024/01/24 08:50:52;;;;;;;;;7.50;5.50;;;;;9.66;76.64;101584.19;4937144;28;10399;-66
2024/01/24 08:53:18;;;;;;;;;11.50;9.50;;;;;9.65;76.59;101590.56;4950927;29;11282;-66
2024/01/24 08:55:45;;;;;;;;;14.75;9.25;;;;;9.68;76.41;101600.97;4942451;28;10563;-66
2024/01/24 08:58:12;;;;;;;;;11.00;10.00;;;;;9.65;76.34;101633.59;4921069;28;10430;-66
2024/01/24 09:00:39;;;;;;;;;9.25;7.00;;;;;9.60;76.73;101652.03;4954221;28;10474;-66
2024/01/24 09:03:06;;;;;;;;;10.00;9.50;;;;;9.62;76.73;101645.50;4937420;28;11279;-66
2024/01/24 09:05:33;;;;;;;;;14.25;11.75;;;;;9.62;76.72;101661.63;4936073;28;10411;-66
2024/01/24 09:08:01;;;;;;;;;11.75;11.75;;;;;9.70;76.78;101651.88;4954066;28;10521;-66
2024/01/24 09:10:28;;;;;;;;;10.00;5.75;;;;;9.81;76.45;101648.88;4939184;29;10473;-66
2024/01/24 09:12:54;;;;;;;;;15.50;7.75;;;;;9.82;76.13;101637.94;4917711;29;10471;-67
2024/01/24 09:15:22;;;;;;;;;11.50;8.00;;;;;9.82;76.29;101642.47;4918230;28;10554;-66
2024/01/24 09:17:50;;;;;;;;;7.00;6.50;;;;;9.75;76.59;101655.75;4952994;28;10396;-66
2024/01/24 09:20:17;;;;;;;;;17.50;7.25;;;;;9.77;76.83;101677.94;4954082;28;11292;-66
2024/01/24 09:22:45;;;;;;;;;15.50;11.50;;;;;9.75;76.78;101679.94;4936284;28;10421;-66
2024/01/24 09:25:12;;;;;;;;;7.00;7.00;;;;;9.76;76.27;101704.97;4934379;29;10437;-66
2024/01/24 09:27:40;;;;;;;;;10.75;7.50;;;;;9.81;76.07;101708.84;4902181;29;10318;-66
2024/01/24 09:30:07;;;;;;;;;11.25;7.50;;;;;9.82;75.89;101690.88;4934446;29;10406;-66
2024/01/24 09:32:34;;;;;;;;;7.25;5.75;;;;;9.84;75.50;101676.25;4934426;29;10421;-66
2024/01/24 09:35:01;;;;;;;;;6.50;5.75;;;;;9.87;75.47;101683.13;4917352;29;10388;-66
2024/01/24 09:37:28;;;;;;;;;9.00;6.25;;;;;9.86;75.46;101684.97;4927475;29;10260;-66
2024/01/24 09:39:55;;;;;;;;;11.00;8.75;;;;;9.94;75.21;101691.38;4934402;29;10291;-66
2024/01/24 09:42:26;;;;;;;;;14.25;9.00;;;;;9.96;75.49;101710.84;4936126;29;10498;-66
2024/01/24 09:44:57;;;;;;;;;8.00;7.50;;;;;9.98;75.49;101720.44;4923094;29;11206;-66
2024/01/24 09:47:25;;;;;;;;;14.75;8.00;;;;;9.99;74.78;101715.91;4917014;29;10267;-66
2024/01/24 09:49:52;;;;;;;;;11.00;7.50;;;;;10.03;74.13;101730.69;4934086;29;10339;-67
2024/01/24 09:52:24;;;;;;;;;10.50;7.25;;;;;10.05;74.15;101732.22;4945132;28;10265;-66
2024/01/24 09:54:58;;;;;;;;;6.00;4.00;;;;;10.22;74.50;101749.19;4950143;28;10350;-67
2024/01/24 09:57:26;;;;;;;;;8.75;5.00;;;;;10.13;73.62;101750.22;4936256;28;10170;-67
2024/01/24 09:59:54;;;;;;;;;9.50;8.25;;;;;10.22;73.74;101746.50;4953315;28;10195;-67
2024/01/24 10:02:22;;;;;;;;;13.75;6.75;;;;;10.20;73.87;101750.34;4953184;28;10192;-68
2024/01/24 10:04:51;;;;;;;;;6.50;3.25;;;;;10.31;73.79;101742.81;4935507;28;10127;-67
2024/01/24 10:07:19;;;;;;;;;10.25;6.25;;;;;10.35;73.32;101730.69;4934792;29;10169;-67
2024/01/24 10:09:47;;;;;;;;;8.00;5.00;;;;;10.29;73.39;101746.66;4934175;29;10269;-68
2024/01/24 10:12:14;;;;;;;;;7.00;4.50;;;;;10.18;73.96;101753.22;4933829;29;10286;-68
2024/01/24 10:14:41;;;;;;;;;12.25;6.00;;;;;10.16;73.92;101774.91;4937601;28;10371;-67
2024/01/24 10:17:12;;;;;;;;;9.50;6.00;;;;;10.20;73.65;101782.66;4952126;28;10323;-67
2024/01/24 10:19:39;;;;;;;;;7.75;7.00;;;;;10.14;73.64;101785.00;4951976;28;10283;-67
2024/01/24 10:22:06;;;;;;;;;9.50;7.50;;;;;10.16;73.20;101801.81;4935421;28;10251;-68
2024/01/24 10:24:36;;;;;;;;;9.75;7.75;;;;;10.15;73.49;101807.38;4948122;28;10283;-67
2024/01/24 10:27:04;;;;;;;;;6.50;6.50;;;;;10.13;73.97;101794.09;4933078;29;10148;-68
2024/01/24 10:29:31;;;;;;;;;9.25;6.00;;;;;10.17;73.82;101797.28;4933355;29;10189;-67
2024/01/24 10:31:58;;;;;;;;;9.50;7.00;;;;;10.06;73.58;101784.16;4940518;28;10381;-67
2024/01/24 10:34:27;;;;;;;;;13.00;7.00;;;;;10.10;73.52;101807.03;4927390;29;10208;-67
2024/01/24 10:36:55;;;;;;;;;7.00;5.25;;;;;10.09;73.99;101810.75;4932927;29;10349;-67
2024/01/24 10:39:25;;;;;;;;;6.00;5.50;;;;;10.18;73.68;101822.34;4916117;29;10279;-68
2024/01/24 10:41:54;;;;;;;;;7.00;5.50;;;;;10.11;73.53;101838.31;4944171;28;10956;-68
2024/01/24 10:44:25;;;;;;;;;4.50;3.00;;;;;10.09;73.63;101846.56;4947908;28;10120;-67
2024/01/24 10:46:51;;;;;;;;;6.50;5.50;;;;;10.08;74.04;101844.84;4937783;28;10350;-67
2024/01/24 10:49:19;;;;;;;;;4.00;4.00;;;;;10.16;73.32;101852.09;4937087;29;10210;-67
2024/01/24 10:51:46;;;;;;;;;3.25;2.25;;;;;10.30;73.22;101864.09;4916114;29;10269;-67
2024/01/24 10:54:15;;;;;;;;;8.50;4.50;;;;;10.19;72.94;101832.09;4932520;29;10284;-67
2024/01/24 10:56:49;;;;;;;;;10.50;7.75;;;;;10.14;73.71;101846.88;4896999;29;9965;-66
2024/01/24 10:59:20;;;;;;;;;6.00;5.25;;;;;10.19;73.51;101856.31;4913803;29;10133;-66
2024/01/24 11:01:47;;;;;;;;;5.00;5.00;;;;;10.18;73.67;101854.63;4881477;29;10260;-66
2024/01/24 11:04:21;;;;;;;;;6.00;4.75;;;;;10.13;73.72;101865.91;4932363;29;10285;-67
2024/01/24 11:06:56;;;;;;;;;7.50;6.25;;;;;10.06;74.06;101871.09;4915841;29;10386;-66
2024/01/24 11:09:30;;;;;;;;;10.25;7.00;;;;;10.08;73.96;101881.66;4933050;29;10130;-66
2024/01/24 11:11:58;;;;;;;;;12.00;7.00;;;;;10.19;74.33;101889.44;4915560;29;10338;-66
2024/01/24 11:14:33;;;;;;;;;9.25;7.75;;;;;10.12;74.36;101885.72;4931233;29;10375;-67
2024/01/24 11:17:02;;;;;;;;;10.00;7.50;;;;;10.19;73.81;101905.56;4922196;29;10281;-67
2024/01/24 11:19:30;;;;;;;;;15.00;7.00;;;;;10.09;73.78;101935.34;4910875;29;10323;-67
2024/01/24 11:22:04;;;;;;;;;7.00;6.50;;;;;10.14;74.11;101945.59;4932626;29;10433;-67
2024/01/24 11:24:44;;;;;;;;;7.00;5.25;;;;;10.08;73.54;101930.09;4929206;29;11019;-67
2024/01/24 11:27:33;;;;;;;;;14.00;6.00;;;;;10.22;73.93;101916.03;4913317;29;10294;-67